createdAt,value
2018-07-11T00:00:23.631Z,10.38
2018-07-11T00:02:52.698Z,10.37
2018-07-11T00:05:21.673Z,10.32
2018-07-11T00:07:50.631Z,10.31
2018-07-11T00:10:19.805Z,10.28
2018-07-11T00:12:48.850Z,10.28
2018-07-11T00:15:17.843Z,10.25
2018-07-11T00:17:46.802Z,10.24
2018-07-11T00:20:15.758Z,10.25
2018-07-11T00:22:44.839Z,10.28
2018-07-11T00:25:13.838Z,10.37
2018-07-11T00:27:43.817Z,10.44
2018-07-11T00:30:12.808Z,10.51
2018-07-11T00:32:41.673Z,10.60
2018-07-11T00:35:10.790Z,10.72
2018-07-11T00:37:40.443Z,10.87
2018-07-11T00:40:09.491Z,11.04
2018-07-11T00:42:38.415Z,11.20
2018-07-11T00:45:07.401Z,11.41
2018-07-11T00:47:36.396Z,11.67
2018-07-11T00:50:05.352Z,11.97
2018-07-11T00:52:34.374Z,12.19
2018-07-11T00:55:03.335Z,12.36
2018-07-11T00:57:32.962Z,12.48
2018-07-11T01:00:02.087Z,12.58
2018-07-11T01:02:31.066Z,12.64
2018-07-11T01:04:59.779Z,12.66
2018-07-11T01:07:28.389Z,12.70
2018-07-11T01:09:57.138Z,12.75
2018-07-11T01:12:25.885Z,12.74
2018-07-11T01:14:54.563Z,12.73
2018-07-11T01:17:28.532Z,12.68
2018-07-11T01:19:57.565Z,12.68
2018-07-11T01:22:26.199Z,12.61
2018-07-11T01:24:54.882Z,12.56
2018-07-11T01:27:23.559Z,12.49
2018-07-11T01:29:52.216Z,12.41
2018-07-11T01:32:20.752Z,12.28
2018-07-11T01:34:49.410Z,12.18
2018-07-11T01:37:18.163Z,12.18
2018-07-11T01:39:46.886Z,12.05
2018-07-11T01:42:15.556Z,11.96
2018-07-11T01:44:44.338Z,11.85
2018-07-11T01:47:13.014Z,11.83
2018-07-11T01:49:41.801Z,11.80
2018-07-11T01:52:21.795Z,11.76
2018-07-11T01:54:50.367Z,11.76
2018-07-11T01:57:19.174Z,11.71
2018-07-11T01:59:47.867Z,11.70
2018-07-11T02:02:16.653Z,11.58
2018-07-11T02:04:45.381Z,11.51
2018-07-11T02:07:14.097Z,11.46
2018-07-11T02:09:42.819Z,11.37
2018-07-11T02:12:11.543Z,11.37
2018-07-11T02:14:40.423Z,11.39
2018-07-11T02:17:09.205Z,11.37
2018-07-11T02:19:38.354Z,11.32
2018-07-11T02:22:07.238Z,11.33
2018-07-11T02:24:36.055Z,11.40
2018-07-11T02:27:04.664Z,11.41
2018-07-11T02:29:33.354Z,11.43
2018-07-11T02:32:02.109Z,11.49
2018-07-11T02:34:33.736Z,11.54
2018-07-11T02:37:03.059Z,11.53
2018-07-11T02:39:31.816Z,11.45
2018-07-11T02:42:00.742Z,11.42
2018-07-11T02:44:29.305Z,11.39
2018-07-11T02:47:03.245Z,11.39
2018-07-11T02:49:32.039Z,11.36
2018-07-11T02:52:00.719Z,11.33
2018-07-11T02:54:29.336Z,11.32
2018-07-11T02:56:58.136Z,11.35
2018-07-11T02:59:26.904Z,11.39
2018-07-11T03:01:55.767Z,11.37
2018-07-11T03:04:24.502Z,11.40
2018-07-11T03:06:53.170Z,11.33
2018-07-11T03:09:21.919Z,11.31
2018-07-11T03:11:50.482Z,11.33
2018-07-11T03:14:19.175Z,11.42
2018-07-11T03:16:48.171Z,11.47
2018-07-11T03:19:16.720Z,11.52
2018-07-11T03:21:45.522Z,11.50
2018-07-11T03:24:14.091Z,11.56
2018-07-11T03:26:42.798Z,11.52
2018-07-11T03:29:15.542Z,11.56
2018-07-11T03:31:44.199Z,11.51
2018-07-11T03:34:12.835Z,11.49
2018-07-11T03:36:41.563Z,11.46
2018-07-11T03:39:11.095Z,11.44
2018-07-11T03:41:39.789Z,11.42
2018-07-11T03:44:08.563Z,11.38
2018-07-11T03:46:37.203Z,11.43
2018-07-11T03:49:05.755Z,11.43
2018-07-11T03:51:34.357Z,11.44
2018-07-11T03:54:03.095Z,11.48
2018-07-11T03:56:31.675Z,11.53
2018-07-11T03:59:00.366Z,11.58
2018-07-11T04:01:29.047Z,11.63
2018-07-11T04:03:57.661Z,11.65
2018-07-11T04:06:26.268Z,11.71
2018-07-11T04:08:54.924Z,11.72
2018-07-11T04:11:23.678Z,11.74
2018-07-11T04:13:52.438Z,11.73
2018-07-11T04:16:21.133Z,11.73
2018-07-11T04:18:49.834Z,11.78
2018-07-11T04:21:18.530Z,11.81
2018-07-11T04:23:47.244Z,11.81
2018-07-11T04:26:15.857Z,11.86
2018-07-11T04:28:44.573Z,11.90
2018-07-11T04:31:13.155Z,11.99
2018-07-11T04:33:41.813Z,11.97
2018-07-11T04:36:10.472Z,12.02
2018-07-11T04:38:39.118Z,12.04
2018-07-11T04:41:07.886Z,12.12
2018-07-11T04:43:36.556Z,12.14
2018-07-11T04:46:05.994Z,12.21
2018-07-11T04:48:34.718Z,12.27
2018-07-11T04:51:03.663Z,12.33
2018-07-11T04:53:32.427Z,12.37
2018-07-11T04:56:04.603Z,12.36
2018-07-11T04:58:33.691Z,12.42
2018-07-11T05:01:02.597Z,12.44
2018-07-11T05:03:31.354Z,12.51
2018-07-11T05:05:59.945Z,12.57
2018-07-11T05:08:28.719Z,12.68
2018-07-11T05:10:58.543Z,12.76
2018-07-11T05:13:27.300Z,12.88
2018-07-11T05:15:55.931Z,12.97
2018-07-11T05:18:24.622Z,13.03
2018-07-11T05:20:53.336Z,13.14
2018-07-11T05:23:22.021Z,13.24
2018-07-11T05:25:50.853Z,13.28
2018-07-11T05:28:19.533Z,13.35
2018-07-11T05:30:48.244Z,13.45
2018-07-11T05:33:16.963Z,13.49
2018-07-11T05:35:45.698Z,13.56
2018-07-11T05:38:14.404Z,13.63
2018-07-11T05:40:43.094Z,13.76
2018-07-11T05:43:11.860Z,13.90
2018-07-11T05:45:40.504Z,14.03
2018-07-11T05:48:09.193Z,14.17
2018-07-11T05:50:37.894Z,14.29
2018-07-11T05:53:07.086Z,14.34
2018-07-11T05:55:35.850Z,14.37
2018-07-11T05:58:04.634Z,14.53
2018-07-11T06:00:34.446Z,14.75
2018-07-11T06:03:03.169Z,14.97
2018-07-11T06:05:31.919Z,15.19
2018-07-11T06:08:00.564Z,15.40
2018-07-11T06:10:29.242Z,15.61
2018-07-11T06:12:57.917Z,15.87
2018-07-11T06:15:26.704Z,16.11
2018-07-11T06:17:55.380Z,16.28
2018-07-11T06:20:24.148Z,16.36
2018-07-11T06:22:52.765Z,16.40
2018-07-11T06:25:21.458Z,16.41
2018-07-11T06:27:50.112Z,16.55
2018-07-11T06:30:18.701Z,16.60
2018-07-11T06:32:47.545Z,16.79
2018-07-11T06:35:16.124Z,17.07
2018-07-11T06:37:44.775Z,17.50
2018-07-11T06:40:13.475Z,17.78
2018-07-11T06:42:42.138Z,17.89
2018-07-11T06:45:10.936Z,18.03
2018-07-11T06:47:39.563Z,18.13
2018-07-11T06:50:09.280Z,18.40
2018-07-11T06:52:37.892Z,18.46
2018-07-11T06:55:06.681Z,18.44
2018-07-11T06:57:35.387Z,18.39
2018-07-11T07:00:04.142Z,18.33
2018-07-11T07:02:32.759Z,18.18
2018-07-11T07:05:02.439Z,18.11
2018-07-11T07:07:31.161Z,18.03
2018-07-11T07:09:59.862Z,18.14
2018-07-11T07:12:28.503Z,18.32
2018-07-11T07:14:57.229Z,18.65
2018-07-11T07:17:25.831Z,19.15
2018-07-11T07:19:54.431Z,19.66
2018-07-11T07:22:23.082Z,20.00
2018-07-11T07:24:51.708Z,20.10
2018-07-11T07:27:20.331Z,20.01
2018-07-11T07:29:49.081Z,19.88
2018-07-11T07:32:18.750Z,19.69
2018-07-11T07:34:47.349Z,19.77
2018-07-11T07:37:15.955Z,19.87
2018-07-11T07:39:44.803Z,20.01
2018-07-11T07:42:27.536Z,19.96
2018-07-11T07:44:56.258Z,19.98
2018-07-11T07:47:30.290Z,19.93
2018-07-11T07:49:58.992Z,20.06
2018-07-11T07:52:34.984Z,20.28
2018-07-11T07:55:03.634Z,20.48
2018-07-11T07:57:33.101Z,20.78
2018-07-11T08:00:01.696Z,20.91
2018-07-11T08:03:04.772Z,20.89
2018-07-11T08:05:33.429Z,21.05
2018-07-11T08:08:02.147Z,21.15
2018-07-11T08:10:30.852Z,21.21
2018-07-11T08:12:59.611Z,21.31
2018-07-11T08:15:28.271Z,21.37
2018-07-11T08:17:56.973Z,21.37
2018-07-11T08:20:25.547Z,21.35
2018-07-11T08:23:15.313Z,21.48
2018-07-11T08:25:56.438Z,21.49
2018-07-11T08:28:36.124Z,21.58
2018-07-11T08:32:05.180Z,21.62
2018-07-11T08:35:21.359Z,21.74
2018-07-11T08:38:01.916Z,21.71
2018-07-11T08:40:43.759Z,21.38
2018-07-11T08:43:32.310Z,21.10
2018-07-11T08:46:13.363Z,20.96
2018-07-11T08:48:53.128Z,20.84
2018-07-11T08:51:39.207Z,20.58
2018-07-11T08:56:26.149Z,20.45
2018-07-11T08:59:11.188Z,19.94
2018-07-11T09:01:53.091Z,19.66
2018-07-11T09:04:36.199Z,19.50
2018-07-11T09:07:32.592Z,19.33
2018-07-11T09:12:17.723Z,19.36
2018-07-11T09:15:29.016Z,19.48
2018-07-11T09:20:11.447Z,19.81
2018-07-11T09:22:54.367Z,20.49
2018-07-11T09:25:23.032Z,20.75
2018-07-11T09:27:52.010Z,20.92
2018-07-11T09:30:20.664Z,20.89
2018-07-11T09:32:49.738Z,20.74
2018-07-11T09:35:18.515Z,20.84
2018-07-11T09:37:47.134Z,21.21
2018-07-11T09:40:15.852Z,21.35
2018-07-11T09:42:44.651Z,21.61
2018-07-11T09:45:13.329Z,21.72
2018-07-11T09:47:42.028Z,21.94
2018-07-11T09:50:10.755Z,22.17
2018-07-11T09:52:47.928Z,22.29
2018-07-11T09:55:16.573Z,22.38
2018-07-11T09:57:45.362Z,22.52
2018-07-11T10:00:19.294Z,22.46
2018-07-11T10:02:55.728Z,22.38
2018-07-11T10:05:27.271Z,21.98
2018-07-11T10:07:56.072Z,21.70
2018-07-11T10:10:25.609Z,21.58
2018-07-11T10:13:02.042Z,21.59
2018-07-11T10:15:30.770Z,21.85
2018-07-11T10:17:59.445Z,22.30
2018-07-11T10:20:28.126Z,22.51
2018-07-11T10:23:13.805Z,22.57
2018-07-11T10:25:42.816Z,22.18
2018-07-11T10:28:17.859Z,21.92
2018-07-11T10:30:46.523Z,21.49
2018-07-11T10:33:15.325Z,21.31
2018-07-11T10:35:43.946Z,21.31
2018-07-11T10:38:16.424Z,21.29
2018-07-11T10:40:45.157Z,21.31
2018-07-11T10:43:14.269Z,21.21
2018-07-11T10:45:42.995Z,20.94
2018-07-11T10:48:12.845Z,21.18
2018-07-11T10:50:42.469Z,21.68
2018-07-11T10:53:12.219Z,22.04
2018-07-11T10:55:41.337Z,22.27
2018-07-11T10:58:10.188Z,22.18
2018-07-11T11:00:38.952Z,22.04
2018-07-11T11:03:13.500Z,21.66
2018-07-11T11:05:44.131Z,21.14
2018-07-11T11:08:12.795Z,20.60
2018-07-11T11:10:41.543Z,20.17
2018-07-11T11:13:12.471Z,19.77
2018-07-11T11:15:41.348Z,19.52
2018-07-11T11:18:10.897Z,19.13
2018-07-11T11:20:39.554Z,18.71
2018-07-11T11:23:10.497Z,18.36
2018-07-11T11:25:39.525Z,18.07
2018-07-11T11:28:08.100Z,17.86
2018-07-11T11:30:37.240Z,17.69
2018-07-11T11:33:15.538Z,17.50
2018-07-11T11:35:44.564Z,17.31
2018-07-11T11:38:13.553Z,17.18
2018-07-11T11:40:42.575Z,17.13
2018-07-11T11:43:18.469Z,17.33
2018-07-11T11:45:47.669Z,17.60
2018-07-11T11:48:18.199Z,17.92
2018-07-11T11:50:46.879Z,18.23
2018-07-11T11:53:15.685Z,18.45
2018-07-11T11:55:44.339Z,18.52
2018-07-11T11:58:13.777Z,18.51
2018-07-11T12:00:42.517Z,18.48
2018-07-11T12:03:12.356Z,18.36
2018-07-11T12:05:41.053Z,18.35
2018-07-11T12:08:09.665Z,18.30
2018-07-11T12:10:38.279Z,18.24
2018-07-11T12:13:09.056Z,18.17
2018-07-11T12:15:38.062Z,18.10
2018-07-11T12:18:06.685Z,18.03
2018-07-11T12:20:35.344Z,18.02
2018-07-11T12:23:43.707Z,18.09
2018-07-11T12:26:12.383Z,18.14
2018-07-11T12:28:41.114Z,18.21
2018-07-11T12:31:09.791Z,18.27
2018-07-11T12:33:55.037Z,18.33
2018-07-11T12:36:23.770Z,18.46
2018-07-11T12:38:55.182Z,18.47
2018-07-11T12:41:24.016Z,18.51
2018-07-11T12:44:01.105Z,18.58
2018-07-11T12:46:29.852Z,18.53
2018-07-11T12:49:02.604Z,18.44
2018-07-11T12:51:31.955Z,18.28
2018-07-11T12:54:08.063Z,18.23
2018-07-11T12:56:36.782Z,18.16
2018-07-11T12:59:05.499Z,18.20
2018-07-11T13:01:34.279Z,18.14
2018-07-11T13:04:15.737Z,18.00
2018-07-11T13:06:44.567Z,17.79
2018-07-11T13:09:13.331Z,17.72
2018-07-11T13:11:42.062Z,17.72
2018-07-11T13:14:24.135Z,17.67
2018-07-11T13:16:52.934Z,17.71
2018-07-11T13:19:21.548Z,17.80
2018-07-11T13:21:50.583Z,17.78
2018-07-11T13:24:32.116Z,17.77
2018-07-11T13:27:00.813Z,17.82
2018-07-11T13:29:29.438Z,17.81
2018-07-11T13:31:58.137Z,17.86
2018-07-11T13:34:34.649Z,17.93
2018-07-11T13:37:05.124Z,18.04
2018-07-11T13:39:34.363Z,18.22
2018-07-11T13:42:03.036Z,18.50
2018-07-11T13:44:44.913Z,18.68
2018-07-11T13:47:18.831Z,19.12
2018-07-11T13:49:47.563Z,19.37
2018-07-11T13:52:16.272Z,19.51
2018-07-11T13:54:52.388Z,19.67
2018-07-11T13:57:22.293Z,20.00
2018-07-11T13:59:51.309Z,20.16
2018-07-11T14:02:19.985Z,20.15
2018-07-11T14:04:49.750Z,20.28
2018-07-11T14:07:18.591Z,20.54
2018-07-11T14:09:47.266Z,20.51
2018-07-11T14:12:16.360Z,20.82
2018-07-11T14:14:57.904Z,21.60
2018-07-11T14:17:26.827Z,22.17
2018-07-11T14:19:55.540Z,22.72
2018-07-11T14:22:24.319Z,22.91
2018-07-11T14:24:55.120Z,22.47
2018-07-11T14:27:26.387Z,22.02
2018-07-11T14:29:55.135Z,22.01
2018-07-11T14:32:26.341Z,21.79
2018-07-11T14:34:58.724Z,21.70
2018-07-11T14:37:27.370Z,21.50
2018-07-11T14:39:56.093Z,21.53
2018-07-11T14:42:24.830Z,21.69
2018-07-11T14:44:53.523Z,21.85
2018-07-11T14:47:27.434Z,21.95
2018-07-11T14:49:56.111Z,22.12
2018-07-11T14:52:24.853Z,22.03
2018-07-11T14:55:08.026Z,21.65
2018-07-11T14:57:37.491Z,21.32
2018-07-11T15:00:06.536Z,21.03
2018-07-11T15:02:36.447Z,20.59
2018-07-11T15:05:06.327Z,20.44
2018-07-11T15:07:35.515Z,20.26
2018-07-11T15:10:04.456Z,20.08
2018-07-11T15:12:33.234Z,19.83
2018-07-11T15:15:03.974Z,20.08
2018-07-11T15:17:33.393Z,20.48
2018-07-11T15:20:02.305Z,20.77
2018-07-11T15:22:31.599Z,21.08
2018-07-11T15:25:00.549Z,21.08
2018-07-11T15:27:29.398Z,21.11
2018-07-11T15:29:58.905Z,20.97
2018-07-11T15:32:27.955Z,21.00
2018-07-11T15:34:56.767Z,21.09
2018-07-11T15:37:25.555Z,20.86
2018-07-11T15:39:54.771Z,20.54
2018-07-11T15:42:23.628Z,20.24
2018-07-11T15:44:53.670Z,20.05
2018-07-11T15:47:23.246Z,19.97
2018-07-11T15:49:54.019Z,20.05
2018-07-11T15:52:24.991Z,20.31
2018-07-11T15:54:57.059Z,20.60
2018-07-11T15:57:34.865Z,20.88
2018-07-11T16:00:06.989Z,21.12
2018-07-11T16:02:44.549Z,21.42
2018-07-11T16:05:21.405Z,21.42
2018-07-11T16:07:52.418Z,21.14
2018-07-11T16:10:30.248Z,20.84
2018-07-11T16:12:59.428Z,20.86
2018-07-11T16:15:28.225Z,20.87
2018-07-11T16:17:57.226Z,20.78
2018-07-11T16:20:25.955Z,20.81
2018-07-11T16:22:54.688Z,20.82
2018-07-11T16:25:23.393Z,20.99
2018-07-11T16:27:52.221Z,21.13
2018-07-11T16:30:20.983Z,21.26
2018-07-11T16:32:49.794Z,21.24
2018-07-11T16:35:18.678Z,21.21
2018-07-11T16:37:47.578Z,21.10
2018-07-11T16:40:16.671Z,21.18
2018-07-11T16:42:45.433Z,21.28
2018-07-11T16:45:14.294Z,21.50
2018-07-11T16:47:44.090Z,21.82
2018-07-11T16:50:13.470Z,22.04
2018-07-11T16:52:42.245Z,21.98
2018-07-11T16:55:11.700Z,21.84
2018-07-11T16:57:45.590Z,21.58
2018-07-11T17:00:14.948Z,21.06
2018-07-11T17:02:45.491Z,20.48
2018-07-11T17:05:20.736Z,19.91
2018-07-11T17:07:57.435Z,19.48
2018-07-11T17:10:27.429Z,19.23
2018-07-11T17:13:03.481Z,18.95
2018-07-11T17:15:33.374Z,18.74
2018-07-11T17:18:02.233Z,18.51
2018-07-11T17:20:31.053Z,18.31
2018-07-11T17:23:06.897Z,18.15
2018-07-11T17:25:42.755Z,17.98
2018-07-11T17:28:11.523Z,17.85
2018-07-11T17:30:43.773Z,17.68
2018-07-11T17:33:13.591Z,17.59
2018-07-11T17:35:57.034Z,17.52
2018-07-11T17:38:28.508Z,17.52
2018-07-11T17:40:58.081Z,17.60
2018-07-11T17:43:34.765Z,17.67
2018-07-11T17:46:04.323Z,17.80
2018-07-11T17:48:46.090Z,17.95
2018-07-11T17:51:26.254Z,18.00
2018-07-11T17:53:56.948Z,18.07
2018-07-11T17:56:39.218Z,18.18
2018-07-11T17:59:08.065Z,18.25
2018-07-11T18:01:44.641Z,18.36
2018-07-11T18:04:38.424Z,18.44
2018-07-11T18:07:12.098Z,18.39
2018-07-11T18:09:54.721Z,18.32
2018-07-11T18:12:25.726Z,18.18
2018-07-11T18:15:07.152Z,18.20
2018-07-11T18:18:16.255Z,18.25
2018-07-11T18:21:01.913Z,18.45
2018-07-11T18:23:41.561Z,18.65
2018-07-11T18:26:27.143Z,18.80
2018-07-11T18:29:04.287Z,18.79
2018-07-11T18:32:04.869Z,18.77
2018-07-11T18:34:57.783Z,18.68
2018-07-11T18:38:30.359Z,18.65
2018-07-11T18:41:08.974Z,18.48
2018-07-11T18:43:55.063Z,18.38
2018-07-11T18:46:51.176Z,18.34
2018-07-11T18:51:36.329Z,18.28
2018-07-11T18:54:13.243Z,18.11
2018-07-11T18:57:07.580Z,18.10
2018-07-11T18:59:47.385Z,18.02
2018-07-11T19:04:37.701Z,17.92
2018-07-11T19:07:17.446Z,17.61
2018-07-11T19:09:53.937Z,17.56
2018-07-11T19:12:36.634Z,17.59
2018-07-11T19:15:08.832Z,17.53
2018-07-11T19:20:28.516Z,17.48
2018-07-11T19:23:05.507Z,17.25
2018-07-11T19:25:54.250Z,17.24
2018-07-11T19:28:47.214Z,17.21
2018-07-11T19:31:25.182Z,17.20
2018-07-11T19:34:14.385Z,17.23
2018-07-11T19:36:53.966Z,17.23
2018-07-11T19:39:36.639Z,17.23
2018-07-11T19:42:23.829Z,17.20
2018-07-11T19:47:12.619Z,17.25
2018-07-11T19:49:51.638Z,17.17
2018-07-11T19:52:29.921Z,17.11
2018-07-11T19:55:10.287Z,17.08
2018-07-11T19:57:46.866Z,17.02
2018-07-11T20:00:15.675Z,17.02
2018-07-11T20:02:44.447Z,17.09
2018-07-11T20:05:13.110Z,17.10
2018-07-11T20:07:41.724Z,17.14
2018-07-11T20:10:18.424Z,17.13
2018-07-11T20:12:47.185Z,17.13
2018-07-11T20:15:16.016Z,17.21
2018-07-11T20:17:48.867Z,17.17
2018-07-11T20:20:17.794Z,17.19
2018-07-11T20:22:46.677Z,17.18
2018-07-11T20:25:15.293Z,17.18
2018-07-11T20:27:43.941Z,17.20
2018-07-11T20:30:12.853Z,17.23
2018-07-11T20:32:41.570Z,17.22
2018-07-11T20:35:10.437Z,17.24
2018-07-11T20:37:39.411Z,17.21
2018-07-11T20:40:08.055Z,17.23
2018-07-11T20:42:36.775Z,17.24
2018-07-11T20:45:05.535Z,17.19
2018-07-11T20:47:35.011Z,17.19
2018-07-11T20:50:03.624Z,17.17
2018-07-11T20:52:32.387Z,17.11
2018-07-11T20:55:01.080Z,17.09
2018-07-11T20:57:29.861Z,17.12
2018-07-11T21:00:09.626Z,17.13
2018-07-11T21:04:56.751Z,17.07
2018-07-11T21:10:38.660Z,16.90
2018-07-11T21:13:27.384Z,16.64
2018-07-11T21:17:38.732Z,16.63
2018-07-11T21:20:07.407Z,16.52
2018-07-11T21:22:36.141Z,16.50
2018-07-11T21:25:05.159Z,16.50
2018-07-11T21:27:34.798Z,16.49
2018-07-11T21:30:03.490Z,16.50
2018-07-11T21:32:32.140Z,16.58
2018-07-11T21:35:00.950Z,16.64
2018-07-11T21:37:29.598Z,16.71
2018-07-11T21:39:58.460Z,16.73
2018-07-11T21:42:27.222Z,16.79
2018-07-11T21:44:56.079Z,16.83
2018-07-11T21:47:24.745Z,16.89
2018-07-11T21:49:53.563Z,16.92
2018-07-11T21:52:22.332Z,16.92
2018-07-11T21:54:51.053Z,16.92
2018-07-11T21:57:19.764Z,16.95
2018-07-11T21:59:48.504Z,16.91
2018-07-11T22:02:17.181Z,16.87
2018-07-11T22:04:45.866Z,16.83
2018-07-11T22:07:14.668Z,16.79
2018-07-11T22:09:43.506Z,16.76
2018-07-11T22:12:12.163Z,16.72
2018-07-11T22:14:40.855Z,16.71
2018-07-11T22:17:20.773Z,16.69
2018-07-11T22:19:48.098Z,16.68
2018-07-11T22:22:15.428Z,16.70
2018-07-11T22:24:42.784Z,16.74
2018-07-11T22:27:10.142Z,16.78
2018-07-11T22:29:37.501Z,16.79
2018-07-11T22:32:04.819Z,16.75
2018-07-11T22:34:32.141Z,16.73
2018-07-11T22:36:59.480Z,16.71
2018-07-11T22:39:26.843Z,16.74
2018-07-11T22:41:54.166Z,16.75
2018-07-11T22:44:21.595Z,16.81
2018-07-11T22:46:48.944Z,16.83
2018-07-11T22:49:16.920Z,16.83
2018-07-11T22:51:44.274Z,16.80
2018-07-11T22:54:11.622Z,16.79
2018-07-11T22:56:38.947Z,16.81
2018-07-11T22:59:06.258Z,16.78
2018-07-11T23:01:33.597Z,16.74
2018-07-11T23:04:01.084Z,16.71
2018-07-11T23:06:28.447Z,16.68
2018-07-11T23:08:55.785Z,16.66
2018-07-11T23:11:23.142Z,16.63
2018-07-11T23:13:50.452Z,16.62
2018-07-11T23:16:17.871Z,16.62
2018-07-11T23:18:45.390Z,16.57
2018-07-11T23:21:12.783Z,16.55
2018-07-11T23:23:40.131Z,16.51
2018-07-11T23:26:07.473Z,16.43
2018-07-11T23:28:34.813Z,16.33
2018-07-11T23:31:02.187Z,16.24
2018-07-11T23:33:29.593Z,16.15
2018-07-11T23:35:56.936Z,16.12
2018-07-11T23:38:24.239Z,16.08
2018-07-11T23:40:51.598Z,16.01
2018-07-11T23:43:19.924Z,15.89
2018-07-11T23:45:47.313Z,15.75
2018-07-11T23:48:14.671Z,15.65
2018-07-11T23:50:42.018Z,15.55
2018-07-11T23:53:09.327Z,15.44
2018-07-11T23:55:36.746Z,15.39
2018-07-11T23:58:05.191Z,15.41
